Time;durP1;ratioP1;P1;durP2;ratioP2;P2;SDS_P1;SDS_P2;PMS_P1;PMS_P2;Temp;Humidity;BMP_temperature;BMP_pressure;BME280_temperature;BME280_humidity;BME280_pressure;Samples;Min_cycle;Max_cycle;Signal;HPM_P1;HPM_P2
2022/12/16 00:01:26;;;;;;;60.20;38.30;;;;;;;1.98;100.00;100955.50;105324;1288;73152;-71
2022/12/16 00:03:57;;;;;;;51.00;30.50;;;;;;;1.98;100.00;100964.61;105451;1289;58306;-71
2022/12/16 00:06:30;;;;;;;46.30;25.80;;;;;;;1.93;100.00;100974.20;105458;1292;59923;-70
2022/12/16 00:09:00;;;;;;;39.20;23.60;;;;;;;1.70;100.00;100975.46;105622;1295;74581;-70
2022/12/16 00:11:30;;;;;;;39.90;24.30;;;;;;;1.55;100.00;100975.08;105594;1285;71402;-70
2022/12/16 00:13:59;;;;;;;39.60;24.00;;;;;;;1.59;100.00;100975.98;105758;1280;69296;-69
2022/12/16 00:16:28;;;;;;;40.50;24.60;;;;;;;1.64;100.00;100978.39;105464;1295;72105;-69
2022/12/16 00:18:57;;;;;;;47.40;26.00;;;;;;;1.80;100.00;100972.38;105457;1291;57868;-70
2022/12/16 00:21:28;;;;;;;42.10;25.10;;;;;;;1.80;100.00;100964.15;105632;1285;60798;-70
2022/12/16 00:23:57;;;;;;;49.30;29.40;;;;;;;1.82;100.00;100960.30;105615;1293;72290;-70
2022/12/16 00:26:26;;;;;;;47.50;29.10;;;;;;;2.05;100.00;100955.44;105772;1295;61676;-72
2022/12/16 00:28:54;;;;;;;44.30;27.10;;;;;;;2.17;100.00;100944.73;105590;1291;70595;-72
2022/12/16 00:31:23;;;;;;;46.30;27.60;;;;;;;2.13;100.00;100950.88;105571;1292;63355;-72
2022/12/16 00:33:58;;;;;;;36.70;21.20;;;;;;;2.06;100.00;100960.38;105550;1290;61821;-70
2022/12/16 00:36:27;;;;;;;43.00;24.40;;;;;;;2.00;100.00;100965.39;105473;1293;60167;-71
2022/12/16 00:38:55;;;;;;;47.30;24.60;;;;;;;2.07;100.00;100969.64;105561;1288;74460;-69
2022/12/16 00:41:24;;;;;;;40.20;25.70;;;;;;;2.14;100.00;100965.60;105726;1287;61606;-70
2022/12/16 00:43:53;;;;;;;39.20;23.60;;;;;;;2.14;100.00;100963.56;105581;1292;60119;-69
2022/12/16 00:46:21;;;;;;;35.90;22.10;;;;;;;2.04;100.00;100959.77;105703;1286;74669;-70
2022/12/16 00:48:50;;;;;;;40.60;23.00;;;;;;;2.06;100.00;100959.85;105560;1286;62123;-70
2022/12/16 00:51:19;;;;;;;39.80;25.00;;;;;;;2.38;100.00;100961.02;105566;1291;58281;-70
2022/12/16 00:53:48;;;;;;;40.50;24.00;;;;;;;2.49;100.00;100967.20;105580;1295;62965;-70
2022/12/16 00:56:18;;;;;;;38.70;19.20;;;;;;;2.46;100.00;100973.46;105701;1295;72321;-70
2022/12/16 00:58:46;;;;;;;36.30;22.50;;;;;;;2.44;100.00;100967.71;105581;1280;69667;-69
2022/12/16 01:01:15;;;;;;;33.10;19.40;;;;;;;2.46;100.00;100961.27;105708;1286;74626;-72
2022/12/16 01:03:44;;;;;;;43.70;23.00;;;;;;;2.49;100.00;100958.23;105498;1285;61105;-70
2022/12/16 01:06:16;;;;;;;43.40;24.80;;;;;;;2.47;100.00;100962.61;105638;1295;58176;-70
2022/12/16 01:08:47;;;;;;;41.70;23.80;;;;;;;2.66;100.00;100950.60;105637;1287;74618;-70
2022/12/16 01:11:19;;;;;;;39.30;23.80;;;;;;;2.59;100.00;100948.24;105566;1289;61657;-70
2022/12/16 01:13:51;;;;;;;46.80;27.20;;;;;;;2.82;100.00;100953.94;105270;1293;70043;-70
2022/12/16 01:16:22;;;;;;;41.50;24.90;;;;;;;3.00;100.00;100959.86;105470;1292;63059;-71
2022/12/16 01:18:52;;;;;;;41.70;24.50;;;;;;;3.02;100.00;100955.48;105586;1286;58276;-70
2022/12/16 01:21:22;;;;;;;40.20;23.80;;;;;;;3.09;100.00;100951.08;105464;1296;58312;-70
2022/12/16 01:23:51;;;;;;;45.20;26.20;;;;;;;3.24;100.00;100948.60;105636;1292;63915;-70
2022/12/16 01:26:23;;;;;;;40.20;22.40;;;;;;;3.40;100.00;100944.19;105611;1286;71483;-71
2022/12/16 01:28:52;;;;;;;40.60;23.70;;;;;;;3.42;100.00;100944.14;105451;1295;70684;-70
2022/12/16 01:31:23;;;;;;;37.20;22.40;;;;;;;3.35;100.00;100936.29;105605;1298;71353;-71
2022/12/16 01:33:52;;;;;;;35.80;22.50;;;;;;;3.35;100.00;100934.24;105098;1290;61610;-69
2022/12/16 01:36:20;;;;;;;38.30;22.40;;;;;;;3.38;100.00;100933.45;104591;1295;1401921;-69
2022/12/16 01:38:49;;;;;;;26.40;18.80;;;;;;;3.46;100.00;100936.23;105614;1297;63743;-69
2022/12/16 01:41:19;;;;;;;40.40;22.60;;;;;;;3.54;100.00;100938.66;105590;1285;60959;-69
2022/12/16 01:43:48;;;;;;;29.40;20.40;;;;;;;3.63;100.00;100942.62;105613;1291;69557;-68
2022/12/16 01:46:23;;;;;;;38.00;23.20;;;;;;;3.68;100.00;100945.69;105607;1285;73337;-69
2022/12/16 01:49:10;;;;;;;32.50;21.00;;;;;;;3.72;100.00;100951.58;105444;1291;58401;-69
2022/12/16 01:51:43;;;;;;;32.80;18.80;;;;;;;3.81;100.00;100955.67;105587;1285;61378;-70
2022/12/16 01:54:25;;;;;;;33.80;18.00;;;;;;;3.87;100.00;100959.05;105421;1288;74480;-70
2022/12/16 01:56:59;;;;;;;33.80;19.50;;;;;;;3.95;100.00;100962.87;105724;1288;72514;-70
2022/12/16 01:59:33;;;;;;;30.10;19.20;;;;;;;4.05;100.00;100969.00;105589;1290;59179;-69
2022/12/16 02:02:03;;;;;;;35.00;20.90;;;;;;;4.10;100.00;100971.36;105405;1298;63845;-68
2022/12/16 02:04:33;;;;;;;28.80;18.70;;;;;;;4.17;100.00;100971.62;105419;1289;62295;-70
2022/12/16 02:07:01;;;;;;;32.20;20.20;;;;;;;4.20;100.00;100970.44;105578;1292;58140;-69
2022/12/16 02:09:30;;;;;;;29.30;18.20;;;;;;;4.27;100.00;100960.33;105617;1287;63918;-70
2022/12/16 02:12:48;;;;;;;28.30;18.30;;;;;;;4.24;100.00;100950.79;105441;1295;63531;-69
2022/12/16 02:15:26;;;;;;;30.30;18.70;;;;;;;4.27;100.00;100950.15;105593;1280;69781;-70
2022/12/16 02:18:28;;;;;;;30.80;18.50;;;;;;;4.30;100.00;100949.14;105307;1295;73580;-69
2022/12/16 02:21:38;;;;;;;28.50;17.10;;;;;;;4.34;100.00;100947.98;105573;1292;57698;-70
2022/12/16 02:24:45;;;;;;;28.40;18.70;;;;;;;4.34;100.00;100947.30;105586;1291;61307;-71
2022/12/16 02:27:28;;;;;;;28.20;18.00;;;;;;;4.36;100.00;100944.96;105496;1291;63999;-73
2022/12/16 02:30:27;;;;;;;31.40;19.90;;;;;;;4.39;100.00;100945.00;105605;1292;62490;-71
2022/12/16 02:33:17;;;;;;;33.40;19.10;;;;;;;4.37;100.00;100942.34;105592;1292;60423;-71
2022/12/16 02:36:21;;;;;;;17.90;14.80;;;;;;;4.29;100.00;100946.64;105615;1295;73206;-71
2022/12/16 02:39:20;;;;;;;27.60;18.20;;;;;;;4.34;100.00;100947.79;105400;1292;57750;-71
2022/12/16 02:42:18;;;;;;;28.30;19.00;;;;;;;4.42;100.00;100946.58;105620;1291;60524;-71
2022/12/16 02:45:02;;;;;;;25.60;16.00;;;;;;;4.40;100.00;100941.50;105600;1290;73320;-71
2022/12/16 02:47:31;;;;;;;23.90;15.40;;;;;;;4.45;100.00;100946.77;105537;1283;72201;-71
2022/12/16 02:50:00;;;;;;;25.10;15.50;;;;;;;4.46;100.00;100952.80;105290;1294;59308;-71
2022/12/16 02:52:33;;;;;;;25.60;15.40;;;;;;;4.54;100.00;100958.48;105399;1298;63456;-72
2022/12/16 02:55:08;;;;;;;24.70;16.30;;;;;;;4.65;100.00;100957.83;105554;1286;62284;-71
2022/12/16 02:58:08;;;;;;;19.50;13.90;;;;;;;4.70;100.00;100955.73;105317;1292;58193;-71
2022/12/16 03:01:00;;;;;;;19.70;13.00;;;;;;;4.80;100.00;100949.23;105567;1294;64015;-71
2022/12/16 03:03:57;;;;;;;20.40;12.80;;;;;;;4.83;100.00;100943.42;105578;1290;71805;-70
2022/12/16 03:06:29;;;;;;;20.40;10.20;;;;;;;4.85;100.00;100929.14;105591;1292;71142;-70
2022/12/16 03:09:02;;;;;;;15.40;10.10;;;;;;;4.91;100.00;100917.67;105638;1292;72216;-71
2022/12/16 03:11:31;;;;;;;;;;;;;;;4.92;100.00;100915.56;105471;1291;57766;-71
2022/12/16 03:14:02;;;;;;;14.00;9.10;;;;;;;4.99;100.00;100915.95;105631;1285;61250;-69
2022/12/16 03:16:33;;;;;;;15.80;10.50;;;;;;;5.04;100.00;100920.69;105444;1290;74440;-69
2022/12/16 03:19:08;;;;;;;13.00;8.80;;;;;;;5.12;100.00;100920.71;105563;1297;70703;-69
2022/12/16 03:21:51;;;;;;;13.30;8.70;;;;;;;5.08;100.00;100918.10;105457;1299;70559;-68
2022/12/16 03:24:19;;;;;;;13.10;8.40;;;;;;;5.07;100.00;100917.30;105456;1295;73349;-69
2022/12/16 03:27:14;;;;;;;13.60;8.60;;;;;;;5.16;100.00;100918.79;105432;1285;62920;-69
2022/12/16 03:30:06;;;;;;;12.80;9.40;;;;;;;5.12;100.00;100914.81;105484;1295;61755;-69
2022/12/16 03:32:40;;;;;;;13.00;8.60;;;;;;;5.20;100.00;100904.41;105400;1292;64337;-68
2022/12/16 03:35:22;;;;;;;12.80;8.20;;;;;;;5.21;100.00;100892.48;105483;1289;61843;-70
2022/12/16 03:37:56;;;;;;;12.00;8.00;;;;;;;5.16;100.00;100886.65;105738;1290;70758;-69
2022/12/16 03:40:27;;;;;;;11.60;8.00;;;;;;;5.17;100.00;100889.68;105468;1292;64769;-70
2022/12/16 03:42:57;;;;;;;12.80;8.80;;;;;;;5.15;100.00;100886.89;105452;1292;62274;-71
2022/12/16 03:45:31;;;;;;;11.70;7.70;;;;;;;5.16;100.00;100888.20;105388;1293;61296;-70
2022/12/16 03:48:00;;;;;;;10.10;6.70;;;;;;;5.21;100.00;100895.23;105650;1293;74716;-70
2022/12/16 03:50:34;;;;;;;13.90;7.90;;;;;;;5.20;100.00;100901.48;105580;1291;71959;-70
2022/12/16 03:53:03;;;;;;;10.40;7.50;;;;;;;5.28;100.00;100902.29;105128;1298;70845;-71
2022/12/16 03:55:32;;;;;;;11.90;8.50;;;;;;;5.27;100.00;100904.08;105642;1285;74248;-68
2022/12/16 03:58:01;;;;;;;13.30;8.00;;;;;;;5.34;100.00;100899.27;105470;1295;63121;-69
2022/12/16 04:00:29;;;;;;;13.90;8.80;;;;;;;5.34;100.00;100896.00;105669;1298;61870;-70
2022/12/16 04:02:58;;;;;;;12.20;7.60;;;;;;;5.37;100.00;100888.59;105220;1299;64366;-71
2022/12/16 04:05:27;;;;;;;12.90;8.20;;;;;;;5.35;100.00;100883.16;105761;1290;72234;-69
2022/12/16 04:07:56;;;;;;;10.40;7.10;;;;;;;5.32;100.00;100885.73;105607;1295;69761;-70
2022/12/16 04:24:27;;;;;;;11.70;8.00;;;;;;;5.28;100.00;100883.33;105617;1290;69801;-69
